Time;durP1;ratioP1;P1;durP2;ratioP2;P2;SDS_P1;SDS_P2;PMS_P1;PMS_P2;Temp;Humidity;BMP_temperature;BMP_pressure;BME280_temperature;BME280_humidity;BME280_pressure;Samples;Min_cycle;Max_cycle;Signal;HPM_P1;HPM_P2
2022/04/20 00:01:01;;;;;;;4.35;1.33;;;7.30;63.00;;;;;;5082681;28;20017;-82
2022/04/20 00:03:27;;;;;;;1.13;0.80;;;7.30;64.90;;;;;;5080529;28;20029;-82
2022/04/20 00:05:54;;;;;;;3.45;1.15;;;7.20;63.70;;;;;;5079341;28;20041;-80
2022/04/20 00:08:20;;;;;;;1.00;0.68;;;7.40;61.50;;;;;;5081393;28;20037;-80
2022/04/20 00:10:46;;;;;;;1.58;1.05;;;7.50;60.90;;;;;;5083562;28;20120;-82
2022/04/20 00:13:12;;;;;;;1.55;1.13;;;7.60;61.40;;;;;;5095985;28;20040;-82
2022/04/20 00:15:39;;;;;;;2.00;0.85;;;7.60;60.40;;;;;;5086018;28;20175;-82
2022/04/20 00:18:05;;;;;;;2.35;1.25;;;7.50;62.60;;;;;;5083249;28;20029;-82
2022/04/20 00:20:31;;;;;;;2.45;1.10;;;7.40;61.60;;;;;;5098577;28;20044;-81
2022/04/20 00:22:58;;;;;;;1.38;0.90;;;7.60;61.10;;;;;;5076775;28;20040;-82
2022/04/20 00:25:24;;;;;;;0.80;0.60;;;7.50;62.90;;;;;;5078182;28;20048;-82
2022/04/20 00:27:50;;;;;;;11.82;0.95;;;7.30;64.90;;;;;;5058945;28;20041;-82
2022/04/20 00:30:16;;;;;;;1.13;1.00;;;7.20;63.80;;;;;;5073027;28;20055;-82
2022/04/20 00:32:43;;;;;;;2.03;1.25;;;7.40;61.80;;;;;;5074559;28;20044;-81
2022/04/20 00:35:13;;;;;;;1.10;0.77;;;7.40;61.60;;;;;;5082287;28;20377;-83
2022/04/20 00:37:43;;;;;;;1.63;0.98;;;7.30;63.40;;;;;;5093393;28;20047;-81
2022/04/20 00:40:10;;;;;;;1.10;0.85;;;7.30;64.60;;;;;;5080620;28;20040;-83
2022/04/20 00:42:40;;;;;;;1.20;1.05;;;7.00;66.50;;;;;;5084940;28;20045;-82
2022/04/20 00:45:08;;;;;;;1.20;0.90;;;6.80;68.20;;;;;;5097424;28;20379;-83
2022/04/20 00:47:41;;;;;;;2.05;1.30;;;6.70;65.30;;;;;;5081947;28;20040;-83
2022/04/20 00:50:07;;;;;;;0.70;0.70;;;6.90;66.20;;;;;;5064113;28;20036;-83
2022/04/20 00:52:35;;;;;;;1.27;0.98;;;6.80;69.10;;;;;;5082525;28;20052;-82
2022/04/20 00:55:02;;;;;;;2.20;1.33;;;6.50;70.80;;;;;;5081734;28;20546;-82
2022/04/20 00:57:30;;;;;;;0.68;0.68;;;6.40;70.20;;;;;;5081708;28;20048;-80
2022/04/20 00:59:59;;;;;;;1.05;0.90;;;6.30;71.00;;;;;;5078653;28;20036;-83
2022/04/20 01:02:27;;;;;;;1.13;0.90;;;6.30;72.70;;;;;;5079976;28;20059;-82
2022/04/20 01:04:53;;;;;;;3.40;1.23;;;6.10;73.00;;;;;;5096154;28;20045;-82
2022/04/20 01:07:40;;;;;;;1.42;0.95;;;6.10;74.40;;;;;;5090434;28;20048;-82
2022/04/20 01:10:15;;;;;;;1.08;0.80;;;6.00;76.20;;;;;;5078517;28;20469;-83
2022/04/20 01:13:17;;;;;;;1.60;0.95;;;6.00;76.60;;;;;;5080042;28;20136;-82
2022/04/20 01:16:04;;;;;;;6.78;1.27;;;5.90;78.90;;;;;;5072491;28;20508;-82
2022/04/20 01:18:51;;;;;;;1.73;0.90;;;5.80;79.80;;;;;;5078845;28;20073;-82
2022/04/20 01:21:25;;;;;;;1.23;0.70;;;5.60;80.70;;;;;;5079948;28;20488;-82
2022/04/20 01:24:08;;;;;;;1.48;1.08;;;5.50;82.70;;;;;;5075594;28;20028;-82
2022/04/20 01:26:53;;;;;;;1.30;1.00;;;5.40;84.00;;;;;;5071444;28;20040;-82
2022/04/20 01:29:29;;;;;;;1.17;0.93;;;5.40;84.30;;;;;;5082482;28;20040;-81
2022/04/20 01:32:09;;;;;;;1.95;1.20;;;5.40;85.80;;;;;;5075234;28;20044;-82
2022/04/20 01:34:55;;;;;;;1.48;0.98;;;5.30;84.90;;;;;;5074890;28;20040;-81
2022/04/20 01:37:22;;;;;;;2.28;0.82;;;5.20;86.10;;;;;;5075246;28;20044;-80
2022/04/20 01:39:48;;;;;;;1.25;1.08;;;5.10;87.40;;;;;;5087595;28;20037;-82
2022/04/20 01:42:15;;;;;;;2.42;1.33;;;5.10;87.80;;;;;;5073756;28;20044;-82
2022/04/20 01:44:49;;;;;;;1.17;1.05;;;4.90;89.30;;;;;;5072672;28;20033;-82
2022/04/20 01:47:28;;;;;;;1.20;1.10;;;4.80;89.30;;;;;;5093916;28;20048;-82
2022/04/20 01:50:07;;;;;;;2.45;1.40;;;4.70;90.50;;;;;;5075956;28;20044;-82
2022/04/20 01:52:43;;;;;;;2.40;1.00;;;4.70;90.80;;;;;;5080028;28;20037;-82
2022/04/20 01:55:41;;;;;;;2.40;1.30;;;4.70;90.10;;;;;;5071981;28;20047;-81
2022/04/20 01:58:34;;;;;;;1.42;1.13;;;4.60;90.30;;;;;;5072624;28;20040;-82
2022/04/20 02:04:08;;;;;;;2.80;1.33;;;4.70;91.00;;;;;;5089034;28;20037;-82
2022/04/20 02:06:36;;;;;;;1.80;1.30;;;4.60;91.30;;;;;;5076529;28;20052;-81
2022/04/20 02:09:07;;;;;;;;;;;4.30;91.40;;;;;;5077785;28;20045;-81
2022/04/20 02:12:02;;;;;;;1.25;1.15;;;4.10;91.80;;;;;;5067378;28;19912;-82
2022/04/20 02:14:47;;;;;;;1.42;1.30;;;3.90;92.60;;;;;;5072086;28;20037;-82
2022/04/20 02:17:36;;;;;;;1.10;0.93;;;3.80;93.00;;;;;;5072553;28;20056;-80
2022/04/20 02:20:04;;;;;;;2.95;1.20;;;3.70;93.80;;;;;;5081487;28;20055;-82
2022/04/20 02:22:30;;;;;;;2.35;1.20;;;3.70;94.00;;;;;;5074570;28;20452;-81
2022/04/20 02:24:59;;;;;;;1.75;1.27;;;3.80;94.40;;;;;;5071149;28;20041;-82
2022/04/20 02:27:26;;;;;;;1.23;1.10;;;3.80;94.90;;;;;;5071384;28;20056;-81
2022/04/20 02:29:53;;;;;;;1.10;0.88;;;3.90;94.50;;;;;;5074495;28;20036;-82
2022/04/20 02:32:21;;;;;;;2.35;1.55;;;3.80;94.30;;;;;;5073442;28;20029;-82
2022/04/20 02:34:48;;;;;;;2.22;1.33;;;3.60;94.80;;;;;;5089314;28;20044;-81
2022/04/20 02:37:14;;;;;;;7.05;1.60;;;3.70;95.00;;;;;;5071639;28;20028;-82
2022/04/20 02:39:42;;;;;;;4.95;1.40;;;3.60;95.20;;;;;;5085250;28;20044;-82
2022/04/20 02:42:10;;;;;;;2.20;1.60;;;3.50;95.90;;;;;;5068422;28;20020;-82
2022/04/20 02:44:36;;;;;;;1.60;1.38;;;3.50;95.70;;;;;;5072648;28;20021;-81
2022/04/20 02:47:03;;;;;;;3.22;1.52;;;3.40;96.00;;;;;;5071513;28;20043;-81
2022/04/20 02:49:30;;;;;;;2.35;1.67;;;3.30;96.70;;;;;;5085920;28;20048;-80
2022/04/20 02:51:56;;;;;;;1.45;1.25;;;3.40;96.70;;;;;;5072316;28;20374;-81
2022/04/20 02:54:23;;;;;;;3.50;1.48;;;3.50;96.60;;;;;;5070854;28;20041;-80
2022/04/20 02:56:49;;;;;;;1.77;1.27;;;3.60;96.20;;;;;;5073578;28;20041;-81
2022/04/20 02:59:15;;;;;;;1.33;1.23;;;3.60;95.90;;;;;;5086131;28;20036;-81
2022/04/20 03:01:42;;;;;;;1.42;1.33;;;3.50;96.20;;;;;;5072601;28;20110;-81
2022/04/20 03:04:13;;;;;;;1.73;1.50;;;3.30;96.80;;;;;;5087250;28;20473;-82
2022/04/20 03:06:39;;;;;;;1.77;1.33;;;3.30;97.00;;;;;;5071277;28;20056;-82
2022/04/20 03:09:13;;;;;;;2.05;1.50;;;3.30;96.00;;;;;;5080851;28;20041;-82
2022/04/20 03:11:41;;;;;;;2.38;1.58;;;3.20;96.70;;;;;;5081924;28;20469;-81
2022/04/20 03:14:07;;;;;;;2.63;1.42;;;3.20;96.50;;;;;;5073141;28;20035;-82
2022/04/20 03:16:34;;;;;;;3.40;1.30;;;3.40;96.10;;;;;;5069828;28;20596;-82
2022/04/20 03:19:06;;;;;;;1.90;1.17;;;3.50;95.70;;;;;;5070011;28;20036;-82
2022/04/20 03:21:33;;;;;;;1.50;1.40;;;3.50;96.00;;;;;;5071122;28;20040;-82
2022/04/20 03:24:07;;;;;;;1.70;1.45;;;3.50;96.10;;;;;;5072592;28;20127;-82
2022/04/20 03:26:52;;;;;;;1.08;0.98;;;3.40;96.00;;;;;;5073841;28;20044;-82
2022/04/20 03:29:23;;;;;;;;;;;3.40;96.50;;;;;;5071618;28;20029;-79
2022/04/20 03:31:50;;;;;;;2.28;1.40;;;3.30;96.50;;;;;;5069866;28;19915;-82
2022/04/20 03:34:16;;;;;;;2.15;1.48;;;3.20;96.50;;;;;;5071407;28;20028;-82
2022/04/20 03:36:42;;;;;;;3.75;1.70;;;3.20;96.80;;;;;;5084022;28;20619;-82
2022/04/20 03:39:08;;;;;;;1.88;1.40;;;3.10;97.30;;;;;;5066562;28;20033;-81
2022/04/20 03:41:35;;;;;;;3.58;2.20;;;3.20;97.50;;;;;;5068075;28;20050;-81
2022/04/20 03:44:01;;;;;;;2.15;1.75;;;3.10;97.40;;;;;;5071461;28;20041;-82
2022/04/20 03:46:27;;;;;;;1.42;1.20;;;3.10;97.30;;;;;;5069433;28;20039;-82
2022/04/20 03:48:54;;;;;;;1.60;1.50;;;3.20;97.30;;;;;;5072156;28;20036;-82
2022/04/20 03:51:20;;;;;;;2.00;1.30;;;3.20;97.10;;;;;;5090763;28;20044;-82
2022/04/20 03:53:47;;;;;;;2.13;1.45;;;3.20;97.40;;;;;;5087600;28;20036;-81
2022/04/20 03:56:13;;;;;;;4.32;1.67;;;3.10;98.40;;;;;;5071238;28;20037;-82
2022/04/20 03:58:40;;;;;;;2.17;1.65;;;3.10;98.60;;;;;;5084870;28;20036;-81
2022/04/20 04:01:06;;;;;;;3.55;1.40;;;3.00;99.10;;;;;;5070721;28;20037;-81
2022/04/20 04:03:35;;;;;;;2.47;1.60;;;3.00;99.60;;;;;;5085770;28;20040;-81
2022/04/20 04:06:08;;;;;;;2.28;0.93;;;2.90;99.40;;;;;;5070821;28;20040;-81
2022/04/20 04:08:36;;;;;;;3.28;2.03;;;2.90;99.60;;;;;;5077587;28;20044;-81
2022/04/20 04:11:02;;;;;;;5.50;1.95;;;3.00;99.70;;;;;;5070874;28;20041;-82
2022/04/20 04:13:29;;;;;;;3.83;2.03;;;2.90;99.60;;;;;;5070241;28;20115;-80
2022/04/20 04:15:57;;;;;;;2.20;1.98;;;3.00;98.80;;;;;;5066073;28;20048;-81
2022/04/20 04:18:26;;;;;;;1.90;1.45;;;2.90;99.00;;;;;;5085243;28;20045;-81
2022/04/20 04:20:54;;;;;;;3.55;2.13;;;2.90;98.90;;;;;;5077801;28;20056;-81
2022/04/20 04:23:20;;;;;;;2.10;1.90;;;2.90;98.90;;;;;;5082030;28;20509;-81
2022/04/20 04:26:05;;;;;;;2.60;1.33;;;2.90;99.00;;;;;;5069674;28;20033;-81
2022/04/20 04:28:40;;;;;;;3.45;1.60;;;2.90;98.50;;;;;;5052924;28;20544;-80
2022/04/20 04:31:06;;;;;;;5.68;1.65;;;2.80;99.20;;;;;;5069882;28;20044;-80
2022/04/20 04:33:35;;;;;;;1.85;1.60;;;2.70;99.60;;;;;;5069084;28;20391;-80
2022/04/20 04:36:02;;;;;;;2.45;1.90;;;2.80;99.70;;;;;;5081528;28;20045;-81
2022/04/20 04:38:32;;;;;;;2.47;2.03;;;2.80;99.50;;;;;;5068063;28;20052;-81
2022/04/20 04:40:59;;;;;;;3.90;2.03;;;3.00;98.90;;;;;;5081465;28;20044;-80
2022/04/20 04:43:31;;;;;;;2.40;1.77;;;3.00;98.60;;;;;;5080128;28;20057;-81
2022/04/20 04:49:12;;;;;;;2.30;2.00;;;3.00;98.50;;;;;;5042436;28;20053;-82
2022/04/20 04:51:39;;;;;;;2.08;1.83;;;3.10;98.90;;;;;;5031416;28;20495;-81
2022/04/20 04:54:05;;;;;;;2.78;1.50;;;3.00;99.00;;;;;;5058236;28;20037;-81
2022/04/20 04:56:32;;;;;;;5.55;1.88;;;3.10;98.70;;;;;;5081585;28;20048;-82
2022/04/20 04:58:59;;;;;;;3.97;1.55;;;3.10;98.50;;;;;;5088439;28;20047;-82
2022/04/20 05:01:27;;;;;;;4.35;1.45;;;3.20;98.50;;;;;;5084457;28;20045;-81
2022/04/20 05:03:55;;;;;;;2.33;1.90;;;3.40;97.30;;;;;;5085930;28;20041;-82
2022/04/20 05:06:22;;;;;;;2.75;1.92;;;3.90;96.00;;;;;;5070310;28;20423;-81
2022/04/20 05:09:04;;;;;;;3.80;1.83;;;5.20;92.00;;;;;;5070475;28;20040;-81
2022/04/20 05:11:31;;;;;;;2.03;1.83;;;6.40;86.00;;;;;;5079698;28;20045;-79
2022/04/20 05:13:57;;;;;;;4.55;2.30;;;7.00;81.20;;;;;;5068083;28;20044;-81
2022/04/20 05:16:26;;;;;;;4.55;2.03;;;7.60;78.50;;;;;;5081123;28;20045;-79
2022/04/20 05:18:52;;;;;;;2.22;2.03;;;8.20;74.90;;;;;;5068809;28;20041;-82
2022/04/20 05:21:19;;;;;;;2.83;2.17;;;8.30;72.70;;;;;;5071845;28;20033;-80
2022/04/20 05:23:46;;;;;;;3.67;2.35;;;8.30;72.10;;;;;;5081282;28;20041;-81
2022/04/20 05:26:13;;;;;;;6.07;1.90;;;8.60;70.30;;;;;;5082385;28;20033;-81
2022/04/20 05:28:43;;;;;;;2.30;2.00;;;8.80;69.30;;;;;;5077431;28;20057;-82
2022/04/20 05:31:09;;;;;;;2.63;1.88;;;8.90;68.20;;;;;;5070610;28;20496;-81
2022/04/20 05:33:37;;;;;;;1.40;1.20;;;8.90;67.60;;;;;;5088702;28;20044;-81
2022/04/20 05:36:04;;;;;;;3.20;1.88;;;9.10;67.60;;;;;;5072935;28;20478;-81
2022/04/20 05:44:03;;;;;;;1.70;1.30;;;9.70;64.50;;;;;;5081400;28;20402;-83
2022/04/20 05:46:30;;;;;;;1.85;1.42;;;9.90;62.90;;;;;;5086353;28;20047;-81
2022/04/20 05:49:09;;;;;;;1.77;1.27;;;9.90;63.00;;;;;;5066778;28;20449;-81
2022/04/20 05:51:35;;;;;;;4.60;1.60;;;10.40;62.00;;;;;;5094342;28;20041;-81
2022/04/20 05:54:02;;;;;;;2.30;1.55;;;10.20;60.70;;;;;;5092647;28;20394;-81
2022/04/20 05:56:31;;;;;;;1.58;1.20;;;10.60;60.20;;;;;;5085172;28;20045;-81
2022/04/20 05:58:58;;;;;;;4.65;1.17;;;11.10;58.90;;;;;;5066786;28;20049;-82
2022/04/20 06:01:26;;;;;;;1.02;0.93;;;10.70;58.90;;;;;;5084391;28;20041;-81
2022/04/20 06:03:55;;;;;;;2.60;1.77;;;11.20;58.30;;;;;;5074465;28;20036;-81
2022/04/20 06:06:32;;;;;;;2.03;1.15;;;10.70;58.60;;;;;;5087577;28;20051;-82
2022/04/20 06:09:03;;;;;;;3.78;1.48;;;11.50;57.60;;;;;;5071051;28;20045;-81
2022/04/20 06:11:47;;;;;;;4.88;1.65;;;11.50;57.00;;;;;;5072013;28;20029;-82
2022/04/20 06:14:20;;;;;;;3.38;1.50;;;12.00;55.50;;;;;;5084922;28;20044;-81
2022/04/20 06:17:04;;;;;;;2.17;1.40;;;11.60;55.00;;;;;;5085911;28;20060;-82
2022/04/20 06:19:36;;;;;;;2.85;1.77;;;11.50;56.00;;;;;;5089232;28;20051;-83
2022/04/20 06:22:32;;;;;;;1.60;1.30;;;12.00;55.30;;;;;;5068577;28;20374;-83
2022/04/20 06:25:18;;;;;;;1.23;1.13;;;12.40;54.20;;;;;;5073681;28;20045;-83
2022/04/20 06:28:04;;;;;;;2.65;1.65;;;12.70;54.50;;;;;;5070797;28;20071;-85
2022/04/20 06:30:40;;;;;;;1.85;1.30;;;13.10;53.50;;;;;;5073632;28;20474;-83
2022/04/20 06:33:21;;;;;;;2.45;1.17;;;12.80;53.00;;;;;;5066077;28;20454;-85
2022/04/20 06:36:16;;;;;;;1.88;1.13;;;12.20;54.30;;;;;;5070442;28;20037;-82
2022/04/20 06:39:02;;;;;;;1.63;1.20;;;12.90;53.50;;;;;;5083091;28;20040;-85
2022/04/20 06:41:42;;;;;;;2.53;1.70;;;13.20;52.50;;;;;;5076300;28;20402;-82
2022/04/20 06:44:37;;;;;;;1.58;1.10;;;12.70;53.00;;;;;;5074103;28;20047;-84
2022/04/20 06:47:34;;;;;;;2.38;1.27;;;13.50;52.70;;;;;;5087983;28;20040;-84
2022/04/20 06:50:09;;;;;;;4.55;1.58;;;13.40;52.10;;;;;;5091624;28;20049;-85
2022/04/20 06:58:41;;;;;;;1.98;1.55;;;14.30;50.10;;;;;;5091677;28;20055;-83
2022/04/20 07:01:28;;;;;;;2.35;1.38;;;14.90;49.10;;;;;;5066957;28;20028;-83
2022/04/20 07:04:17;;;;;;;4.88;1.63;;;14.50;49.40;;;;;;5085661;28;20390;-84
2022/04/20 07:07:08;;;;;;;2.40;1.33;;;13.40;49.30;;;;;;5079107;28;20040;-84
2022/04/20 07:09:57;;;;;;;3.80;1.20;;;13.20;50.20;;;;;;5070391;28;20037;-83
2022/04/20 07:12:37;;;;;;;1.10;1.00;;;13.60;49.80;;;;;;5086544;28;20045;-88
2022/04/20 07:15:04;;;;;;;2.05;1.58;;;13.60;49.00;;;;;;5052596;28;20056;-83
2022/04/20 07:17:31;;;;;;;1.95;1.08;;;13.50;49.80;;;;;;5067696;28;20044;-83
2022/04/20 07:20:17;;;;;;;1.63;1.17;;;14.10;49.00;;;;;;5071466;28;20044;-83
2022/04/20 07:23:02;;;;;;;2.92;1.50;;;14.60;47.80;;;;;;5066706;28;20036;-84
2022/04/20 07:25:39;;;;;;;3.58;1.70;;;14.10;48.90;;;;;;5082752;28;20040;-85
2022/04/20 07:28:20;;;;;;;2.65;1.35;;;13.60;48.40;;;;;;5064306;28;20048;-86
2022/04/20 07:31:17;;;;;;;2.42;1.58;;;13.80;48.30;;;;;;5088561;28;20394;-84
2022/04/20 07:34:04;;;;;;;1.33;1.20;;;13.60;48.40;;;;;;5085497;28;20032;-84
2022/04/20 07:36:49;;;;;;;3.92;1.77;;;13.50;48.40;;;;;;5081794;28;20040;-84
2022/04/20 07:39:38;;;;;;;2.60;1.15;;;13.60;47.90;;;;;;5063660;28;20099;-85
2022/04/20 07:42:30;;;;;;;3.30;1.00;;;13.00;48.50;;;;;;5072675;28;20036;-85
2022/04/20 07:45:27;;;;;;;3.38;1.33;;;13.40;48.20;;;;;;5070295;28;20051;-87
2022/04/20 07:48:09;;;;;;;1.20;1.08;;;13.80;48.90;;;;;;5071076;28;20055;-86
2022/04/20 07:51:06;;;;;;;3.85;1.45;;;13.40;48.20;;;;;;5065652;28;20051;-85
2022/04/20 07:53:55;;;;;;;4.43;1.90;;;13.60;48.00;;;;;;5067232;28;20037;-88
2022/04/20 07:56:57;;;;;;;3.17;1.48;;;13.40;48.10;;;;;;5065792;28;20044;-85
2022/04/20 07:59:49;;;;;;;2.45;1.73;;;14.00;47.80;;;;;;5067698;28;20024;-85
2022/04/20 08:02:24;;;;;;;2.42;1.25;;;14.10;47.40;;;;;;5071291;28;20032;-89
2022/04/20 08:05:19;;;;;;;3.28;2.05;;;13.70;46.90;;;;;;5068488;28;20401;-89
2022/04/20 08:07:46;;;;;;;2.17;1.37;;;13.40;47.60;;;;;;5067127;28;20505;-85
2022/04/20 08:10:13;;;;;;;2.58;1.23;;;13.70;46.50;;;;;;5074469;28;20039;-91
2022/04/20 08:12:44;;;;;;;2.80;1.42;;;14.00;47.10;;;;;;5070775;28;20111;-89
2022/04/20 08:15:16;;;;;;;1.92;1.23;;;13.30;46.60;;;;;;5074049;28;20053;-90
2022/04/20 08:17:48;;;;;;;1.17;1.05;;;13.30;46.40;;;;;;5085555;28;20047;-92
2022/04/20 08:20:34;;;;;;;1.17;0.98;;;13.30;47.10;;;;;;5069089;28;20401;-91
2022/04/20 08:23:01;;;;;;;1.48;1.20;;;14.50;46.60;;;;;;5087698;28;20043;-94
2022/04/20 08:25:28;;;;;;;1.92;1.08;;;14.20;44.80;;;;;;5082157;28;20044;-85
2022/04/20 08:27:54;;;;;;;1.35;1.15;;;14.40;45.50;;;;;;5070124;28;20496;-87
2022/04/20 08:30:20;;;;;;;2.38;1.67;;;14.80;44.80;;;;;;5070621;28;20041;-85
2022/04/20 08:32:46;;;;;;;2.47;1.38;;;14.60;44.40;;;;;;5071683;28;20371;-86
2022/04/20 08:35:12;;;;;;;1.30;1.13;;;14.70;44.60;;;;;;5072049;28;20036;-86
2022/04/20 08:37:39;;;;;;;5.65;1.52;;;14.30;44.70;;;;;;5065165;28;20470;-86
2022/04/20 08:40:05;;;;;;;4.28;1.83;;;14.10;44.90;;;;;;5072139;28;20044;-87
2022/04/20 08:42:34;;;;;;;2.88;1.52;;;14.50;44.50;;;;;;5071606;28;20033;-87
2022/04/20 08:45:04;;;;;;;1.88;1.42;;;14.80;43.60;;;;;;5064918;28;20481;-85
2022/04/20 08:47:39;;;;;;;1.83;1.23;;;15.20;44.00;;;;;;5068829;28;20041;-86
2022/04/20 08:50:08;;;;;;;3.10;1.30;;;15.00;43.80;;;;;;5053328;28;20040;-87
2022/04/20 08:52:39;;;;;;;3.88;1.40;;;15.70;43.50;;;;;;5070556;28;20033;-86
2022/04/20 08:55:13;;;;;;;4.72;1.55;;;16.30;43.00;;;;;;5071931;28;20036;-86
2022/04/20 08:57:40;;;;;;;4.70;1.48;;;15.70;43.50;;;;;;5080568;28;20378;-85
2022/04/20 09:00:09;;;;;;;2.03;1.20;;;15.70;43.30;;;;;;5065967;28;20032;-87
2022/04/20 09:02:36;;;;;;;1.20;1.10;;;15.80;42.70;;;;;;5070220;28;20051;-86
2022/04/20 09:05:04;;;;;;;2.28;1.23;;;15.20;42.20;;;;;;5083639;28;20059;-91
2022/04/20 09:07:31;;;;;;;7.82;1.60;;;15.30;42.10;;;;;;5072979;28;20037;-88
2022/04/20 09:09:58;;;;;;;2.13;1.35;;;15.70;42.60;;;;;;5076761;28;20466;-93
2022/04/20 09:12:26;;;;;;;2.10;1.80;;;15.70;41.30;;;;;;5074309;28;20025;-87
2022/04/20 09:14:53;;;;;;;1.73;1.33;;;16.60;41.80;;;;;;5075439;28;20044;-88
2022/04/20 09:17:21;;;;;;;2.63;1.23;;;16.40;41.40;;;;;;5076006;28;20033;-88
2022/04/20 09:19:53;;;;;;;1.95;1.20;;;16.50;41.60;;;;;;5089024;28;20389;-87
2022/04/20 09:22:24;;;;;;;1.42;1.13;;;16.50;41.60;;;;;;5074957;28;20028;-88
2022/04/20 09:25:11;;;;;;;1.30;1.00;;;16.50;41.10;;;;;;5073375;28;20032;-92
2022/04/20 09:27:39;;;;;;;1.75;1.20;;;17.00;41.00;;;;;;5072760;28;20374;-89
2022/04/20 09:30:16;;;;;;;1.33;1.05;;;15.80;41.30;;;;;;5073268;28;20041;-87
2022/04/20 09:32:44;;;;;;;3.42;1.88;;;15.50;41.40;;;;;;5073738;28;20048;-93
2022/04/20 09:35:14;;;;;;;1.90;1.42;;;15.30;41.00;;;;;;5074373;28;20509;-88
2022/04/20 09:37:43;;;;;;;2.53;1.50;;;16.20;41.20;;;;;;5073846;28;20039;-87
2022/04/20 09:40:36;;;;;;;2.05;1.20;;;15.90;40.50;;;;;;5067365;28;20473;-89
2022/04/20 09:43:06;;;;;;;2.33;1.40;;;15.20;41.00;;;;;;5074228;28;20040;-94
2022/04/20 09:45:34;;;;;;;4.38;1.20;;;15.70;41.70;;;;;;5071497;28;20029;-88
2022/04/20 09:51:11;;;;;;;2.60;0.90;;;17.20;40.10;;;;;;5073423;28;20413;-85
2022/04/20 09:53:38;;;;;;;1.73;1.40;;;16.00;39.70;;;;;;5075654;28;20032;-89
2022/04/20 09:56:22;;;;;;;3.03;1.20;;;15.90;40.20;;;;;;5070408;28;20028;-87
2022/04/20 09:58:58;;;;;;;1.20;1.10;;;15.80;40.20;;;;;;5070666;28;20250;-87
2022/04/20 10:01:36;;;;;;;2.08;1.30;;;15.30;41.40;;;;;;5073407;28;20029;-88
2022/04/20 10:04:05;;;;;;;1.38;1.20;;;14.80;42.00;;;;;;5072948;28;20037;-89
2022/04/20 10:06:32;;;;;;;1.70;1.00;;;14.50;41.00;;;;;;5072080;28;20052;-88
2022/04/20 10:08:59;;;;;;;2.97;1.40;;;14.60;41.60;;;;;;5072469;28;20048;-91
2022/04/20 10:11:26;;;;;;;1.65;1.30;;;14.60;41.20;;;;;;5074050;28;20040;-88
2022/04/20 10:16:39;;;;;;;2.05;1.20;;;13.50;42.70;;;;;;5071112;28;20056;-86
2022/04/20 10:19:08;;;;;;;2.03;1.33;;;13.70;42.20;;;;;;5073020;28;20359;-86
2022/04/20 10:21:43;;;;;;;1.27;0.90;;;13.50;41.60;;;;;;5072203;28;20045;-87
2022/04/20 10:24:12;;;;;;;3.72;1.42;;;13.60;41.50;;;;;;5068090;28;20059;-84
2022/04/20 10:26:39;;;;;;;1.40;1.10;;;13.50;42.20;;;;;;5069958;28;20049;-85
2022/04/20 10:29:16;;;;;;;1.58;1.10;;;13.90;41.80;;;;;;5072412;28;20045;-88
2022/04/20 10:31:53;;;;;;;1.23;1.05;;;13.90;41.70;;;;;;5074003;28;20037;-85
2022/04/20 10:34:21;;;;;;;1.48;1.08;;;13.70;41.70;;;;;;5083293;28;20371;-85
2022/04/20 10:37:20;;;;;;;1.02;0.93;;;13.90;41.80;;;;;;5075294;28;20500;-85
2022/04/20 10:40:17;;;;;;;4.83;1.43;;;13.90;41.70;;;;;;5080688;28;20063;-84
2022/04/20 10:43:18;;;;;;;1.58;1.17;;;14.00;42.10;;;;;;5086868;28;20037;-84
2022/04/20 10:46:01;;;;;;;1.00;0.90;;;14.30;41.20;;;;;;5067216;28;20035;-84
2022/04/20 10:48:41;;;;;;;2.70;0.93;;;14.60;41.60;;;;;;5071819;28;20036;-84
2022/04/20 10:51:12;;;;;;;5.22;1.92;;;14.30;41.90;;;;;;5068652;28;20037;-83
2022/04/20 10:53:38;;;;;;;2.65;1.08;;;14.80;41.50;;;;;;5071159;28;20029;-86
2022/04/20 10:56:05;;;;;;;2.75;1.80;;;14.80;41.80;;;;;;5071494;28;20040;-87
2022/04/20 10:58:31;;;;;;;1.88;1.33;;;14.80;42.00;;;;;;5067806;28;20067;-84
2022/04/20 11:01:13;;;;;;;2.72;1.45;;;14.60;42.10;;;;;;5071625;28;20036;-88
2022/04/20 11:03:58;;;;;;;1.20;1.00;;;14.70;43.20;;;;;;5083464;28;20028;-86
2022/04/20 11:06:29;;;;;;;1.73;1.17;;;14.80;42.90;;;;;;5094584;28;20037;-86
2022/04/20 11:08:58;;;;;;;;;;;14.60;42.50;;;;;;5080473;28;20432;-83
2022/04/20 11:21:09;;;;;;;9.63;2.40;;;14.50;42.10;;;;;;5079175;28;20029;-83
2022/04/20 11:23:54;;;;;;;2.20;1.63;;;14.90;42.80;;;;;;5084038;28;20043;-81
2022/04/20 11:26:25;;;;;;;2.50;1.70;;;14.70;43.00;;;;;;5086865;28;20385;-87
2022/04/20 11:28:52;;;;;;;;;;;14.80;42.10;;;;;;5066078;28;20397;-84
2022/04/20 11:31:18;;;;;;;1.70;1.42;;;14.60;42.60;;;;;;5071376;28;20362;-85
2022/04/20 11:33:45;;;;;;;2.15;1.33;;;14.60;42.70;;;;;;5072237;28;20036;-83
2022/04/20 11:36:13;;;;;;;3.00;1.48;;;14.60;42.70;;;;;;5070297;28;20059;-82
2022/04/20 11:38:41;;;;;;;1.80;1.33;;;14.70;42.30;;;;;;5065806;28;20090;-84
2022/04/20 11:41:09;;;;;;;3.13;1.40;;;14.80;42.60;;;;;;5066885;28;20037;-84
2022/04/20 11:43:39;;;;;;;3.58;1.58;;;14.70;42.50;;;;;;5069909;28;20040;-84
2022/04/20 11:46:07;;;;;;;;;;;14.90;43.10;;;;;;5056690;28;20045;-83
2022/04/20 11:48:52;;;;;;;2.92;2.03;;;15.40;42.00;;;;;;5070412;28;20366;-83
2022/04/20 11:51:27;;;;;;;3.45;2.03;;;15.50;42.70;;;;;;5073134;28;20040;-86
2022/04/20 11:53:54;;;;;;;2.05;1.30;;;15.30;41.90;;;;;;5085217;28;20052;-88
2022/04/20 11:56:41;;;;;;;2.05;1.85;;;15.50;42.80;;;;;;5070035;28;20486;-87
2022/04/20 11:59:08;;;;;;;1.70;1.60;;;15.30;42.40;;;;;;5086792;28;20051;-83
2022/04/20 12:01:37;;;;;;;4.43;1.65;;;15.30;42.40;;;;;;5067499;28;20516;-85
2022/04/20 12:04:30;;;;;;;2.53;1.55;;;15.00;41.60;;;;;;5070487;28;20044;-83
2022/04/20 12:06:59;;;;;;;2.17;1.65;;;15.20;42.10;;;;;;5067427;28;20047;-84
2022/04/20 12:09:30;;;;;;;1.98;1.60;;;15.20;42.20;;;;;;5073063;28;20047;-86
2022/04/20 12:12:02;;;;;;;3.40;1.58;;;15.30;42.00;;;;;;5081464;28;20048;-86
2022/04/20 12:14:38;;;;;;;2.53;1.67;;;15.10;41.70;;;;;;5070582;28;20025;-80
2022/04/20 12:17:06;;;;;;;5.35;2.30;;;14.90;42.60;;;;;;5070414;28;20041;-86
2022/04/20 12:19:36;;;;;;;2.10;1.65;;;15.40;42.30;;;;;;5083728;28;20075;-88
2022/04/20 12:22:19;;;;;;;2.78;1.30;;;15.30;41.60;;;;;;5073863;28;20028;-87
2022/04/20 12:24:48;;;;;;;2.75;1.27;;;15.30;41.60;;;;;;5066118;28;20040;-82
2022/04/20 12:27:24;;;;;;;2.63;1.45;;;15.20;40.60;;;;;;5068815;28;20123;-85
2022/04/20 12:29:55;;;;;;;1.92;1.60;;;15.50;41.20;;;;;;5069963;28;20489;-86
2022/04/20 12:32:26;;;;;;;3.15;1.75;;;15.70;40.50;;;;;;5072532;28;20052;-83
2022/04/20 12:34:54;;;;;;;2.67;1.65;;;16.00;40.30;;;;;;5067963;28;20040;-84
2022/04/20 12:37:29;;;;;;;3.63;1.90;;;15.90;40.00;;;;;;5069313;28;20051;-83
2022/04/20 12:39:57;;;;;;;1.90;1.48;;;15.70;40.60;;;;;;5059166;28;20041;-84
2022/04/20 12:42:24;;;;;;;2.67;2.05;;;15.90;40.00;;;;;;5066098;28;20040;-85
2022/04/20 12:45:02;;;;;;;2.63;1.80;;;16.00;40.70;;;;;;5088322;28;20045;-85
2022/04/20 12:47:28;;;;;;;;;;;15.70;39.60;;;;;;5071508;28;20040;-82
2022/04/20 12:49:59;;;;;;;3.83;1.73;;;15.80;39.70;;;;;;5081031;28;20379;-84
2022/04/20 12:52:29;;;;;;;3.45;1.70;;;16.20;39.10;;;;;;5082552;28;20041;-86
2022/04/20 12:55:03;;;;;;;2.60;1.95;;;16.00;39.70;;;;;;5072536;28;20040;-82
2022/04/20 13:03:22;;;;;;;2.63;1.80;;;15.90;39.20;;;;;;5081205;28;20044;-85
2022/04/20 13:05:49;;;;;;;4.00;1.60;;;16.10;38.30;;;;;;5063173;28;20052;-84
2022/04/20 13:08:15;;;;;;;2.47;1.50;;;16.00;38.50;;;;;;5078398;28;20044;-85
2022/04/20 13:10:43;;;;;;;3.63;2.10;;;16.20;38.80;;;;;;5074785;28;20051;-88
2022/04/20 13:13:10;;;;;;;2.35;1.40;;;16.50;38.90;;;;;;5076140;28;20033;-84
2022/04/20 13:15:45;;;;;;;3.25;1.75;;;16.60;39.00;;;;;;5068717;28;20486;-85
2022/04/20 13:18:11;;;;;;;5.15;1.55;;;16.90;39.00;;;;;;5068043;28;20040;-86
2022/04/20 13:20:37;;;;;;;4.50;2.03;;;17.00;38.10;;;;;;5073444;28;20029;-87
2022/04/20 13:23:06;;;;;;;4.03;1.20;;;16.90;37.70;;;;;;5074566;28;20024;-83
2022/04/20 13:28:17;;;;;;;4.05;2.05;;;16.70;38.10;;;;;;5077647;28;20472;-84
2022/04/20 13:30:46;;;;;;;2.17;1.73;;;16.20;38.00;;;;;;5069790;28;20037;-85
2022/04/20 13:33:15;;;;;;;2.40;2.20;;;16.50;38.20;;;;;;5071828;28;20036;-86
2022/04/20 13:35:44;;;;;;;2.65;1.85;;;16.50;37.00;;;;;;5067880;28;20032;-84
2022/04/20 13:38:11;;;;;;;2.58;2.05;;;16.10;37.10;;;;;;5066227;28;20452;-85
2022/04/20 13:40:38;;;;;;;4.35;1.70;;;16.20;36.90;;;;;;5070092;28;20044;-87
2022/04/20 13:43:09;;;;;;;3.08;2.00;;;16.10;37.70;;;;;;5072150;28;20040;-85
2022/04/20 13:45:35;;;;;;;;;;;16.50;36.30;;;;;;5070481;28;20070;-83
2022/04/20 13:48:02;;;;;;;1.95;1.75;;;16.30;37.60;;;;;;5072288;28;19913;-83
2022/04/20 13:50:28;;;;;;;2.35;1.65;;;16.30;37.20;;;;;;5072269;28;20045;-81
2022/04/20 13:52:55;;;;;;;3.60;1.70;;;16.10;36.00;;;;;;5072498;28;20393;-87
2022/04/20 13:55:22;;;;;;;9.45;2.20;;;16.40;36.30;;;;;;5069097;28;20043;-83
2022/04/20 13:57:48;;;;;;;2.20;1.92;;;17.00;36.50;;;;;;5083402;28;20029;-84
2022/04/20 14:00:15;;;;;;;3.85;2.00;;;16.40;36.40;;;;;;5081633;28;20032;-82
2022/04/20 14:02:42;;;;;;;4.43;2.10;;;16.70;36.20;;;;;;5086071;28;20029;-83